Hlavní strana
METAR-TAF:

METAR-TAF

Letiště :

Tozeur, Tunisko

zeměpisná šířka: 33-55N, zeměpisná délka: 008-06E, výška: 87 m

Aktuální stav počasí

Zpráva byla vytvořena před 56 minutami, v 19:00 UTC
Západoseverozápadní vítr 6 kt
Teplota 13°C
Vlhkost vzduchu 54%
Tlak 1022 hPa
Viditelnost: 8000 m
Polojasno ve výšce 4000 ft

METAR: DTTZ 251900Z 29006KT 8000 SCT040 13/04 Q1022

Čas: 20:56 (19:56 UTC)

Předpověď počasí

Zpráva byla vytvořena před 2 hodinami a 56 minutami, v 17:00 UTC
Předpověď platná od 25 v 18 UTC do 26 v 18 UTC
Severozápadní vítr 6 kt
Viditelnost: 8000 m
Polojasno ve výšce 4000 ft

TAF: DTTZ 251700Z 2518/2618 32006KT 8000 SCT040

Stav a předpovědi počasí z více než 4 000 letišť (zprávy METAR a TAF).

Červené a žluté tečky na mapě představují dostupné meteorologické stanice.

Když kurzor umístíte na tečku, zobrazí se název stanice.

Pak kliknutím zobrazíte stav a předpověď počasí.

Chcete-li změnit mapu, kliknutím na zelené tlačítko se znaménkem +mapu přiblížíte, kliknutím na zelené tlačítko se znaménkem – mapu oddálíte a kliknutím na zelené šipky přejdete na sousední mapy.


METAR-TAF: